Time;durP1;ratioP1;P1;durP2;ratioP2;P2;SDS_P1;SDS_P2;PMS_P1;PMS_P2;Temp;Humidity;BMP_temperature;BMP_pressure;BME280_temperature;BME280_humidity;BME280_pressure;Samples;Min_cycle;Max_cycle;Signal;HPM_P1;HPM_P2
2022/12/30 00:00:10;;;;;;;4.03;1.50;;;19.80;56.10;;;;;;5046339;28;20524;-58
2022/12/30 00:02:36;;;;;;;3.75;1.10;;;19.70;56.10;;;;;;5053362;28;20049;-59
2022/12/30 00:05:01;;;;;;;7.85;2.05;;;19.70;56.10;;;;;;5052188;28;20037;-59
2022/12/30 00:07:27;;;;;;;4.35;1.33;;;19.70;56.10;;;;;;5052972;28;20493;-58
2022/12/30 00:09:53;;;;;;;5.50;1.33;;;19.70;56.10;;;;;;5052807;28;20548;-58
2022/12/30 00:34:23;;;;;;;5.63;1.50;;;19.60;56.00;;;;;;5071894;28;20044;-58
2022/12/30 00:36:49;;;;;;;7.78;1.80;;;19.60;56.00;;;;;;5071439;28;20048;-59
2022/12/30 00:39:15;;;;;;;5.40;1.50;;;19.50;56.60;;;;;;5071077;28;20043;-59
2022/12/30 00:44:24;;;;;;;6.93;1.63;;;19.50;55.90;;;;;;5072228;28;20128;-59
2022/12/30 00:46:50;;;;;;;6.10;1.58;;;19.50;55.90;;;;;;5072694;28;20084;-59
2022/12/30 00:57:31;;;;;;;4.75;1.40;;;19.50;55.90;;;;;;5072168;28;20562;-60
2022/12/30 00:59:57;;;;;;;5.13;1.35;;;19.40;55.90;;;;;;5072718;28;20048;-60
2022/12/30 01:02:22;;;;;;;4.85;1.52;;;19.40;55.80;;;;;;5070969;28;20044;-60
2022/12/30 01:04:48;;;;;;;5.85;1.77;;;19.40;55.80;;;;;;5072289;28;20120;-60
2022/12/30 01:07:13;;;;;;;6.20;1.65;;;19.40;55.80;;;;;;5071993;28;20063;-60
2022/12/30 01:09:39;;;;;;;5.00;1.60;;;19.40;55.80;;;;;;5066830;28;20123;-60
2022/12/30 01:12:08;;;;;;;6.05;1.45;;;19.40;55.80;;;;;;5071538;28;20067;-59
2022/12/30 01:14:50;;;;;;;5.55;1.30;;;19.40;55.80;;;;;;5071880;28;20101;-60
2022/12/30 01:17:29;;;;;;;6.07;1.10;;;19.40;55.80;;;;;;5071141;28;20037;-59
2022/12/30 01:19:55;;;;;;;4.50;1.40;;;19.40;55.80;;;;;;5072143;28;20407;-60
2022/12/30 01:22:20;;;;;;;6.10;1.58;;;19.30;55.80;;;;;;5069888;28;20075;-60
2022/12/30 01:24:46;;;;;;;5.22;1.25;;;19.30;55.80;;;;;;5072120;28;20094;-59
2022/12/30 01:27:11;;;;;;;5.57;1.30;;;19.40;55.80;;;;;;5078219;28;20042;-59
2022/12/30 01:29:38;;;;;;;5.63;1.63;;;19.30;55.80;;;;;;5077704;28;20714;-59
2022/12/30 01:32:08;;;;;;;4.55;1.23;;;19.30;55.80;;;;;;5078938;28;20040;-59
2022/12/30 01:34:34;;;;;;;6.90;1.77;;;19.40;55.80;;;;;;5078820;28;20044;-60
2022/12/30 01:37:00;;;;;;;4.53;1.35;;;19.30;55.70;;;;;;5077812;28;20044;-59
2022/12/30 01:39:25;;;;;;;5.10;1.52;;;19.30;55.80;;;;;;5078254;28;20043;-59
2022/12/30 01:41:53;;;;;;;6.28;1.60;;;19.30;55.80;;;;;;5078715;28;20041;-59
2022/12/30 01:44:45;;;;;;;4.40;1.13;;;19.30;55.70;;;;;;5077489;28;20131;-60
2022/12/30 01:47:12;;;;;;;5.07;1.40;;;19.30;55.80;;;;;;5076787;28;20119;-59
2022/12/30 01:49:39;;;;;;;4.03;1.23;;;19.30;55.90;;;;;;5078720;28;20047;-59
2022/12/30 01:52:05;;;;;;;5.28;1.30;;;19.30;55.80;;;;;;5076266;28;20377;-59
2022/12/30 01:54:31;;;;;;;4.93;1.67;;;19.20;55.70;;;;;;5078122;28;20134;-59
2022/12/30 01:56:56;;;;;;;3.95;1.00;;;19.30;55.80;;;;;;5077034;28;20128;-60
2022/12/30 01:59:25;;;;;;;4.22;1.10;;;19.30;55.80;;;;;;5071605;28;20139;-59
2022/12/30 02:01:50;;;;;;;6.85;1.63;;;19.20;55.70;;;;;;5058430;28;20063;-59
2022/12/30 02:04:18;;;;;;;4.93;1.42;;;19.20;55.70;;;;;;5057682;28;20124;-59
2022/12/30 02:06:59;;;;;;;3.97;1.23;;;19.20;55.70;;;;;;5056729;28;20041;-60
2022/12/30 02:09:25;;;;;;;5.07;1.27;;;19.20;55.70;;;;;;5057509;28;20045;-59
2022/12/30 02:11:51;;;;;;;4.97;1.15;;;19.20;55.70;;;;;;5057800;28;20045;-59
2022/12/30 02:14:17;;;;;;;3.38;1.20;;;19.20;55.80;;;;;;5057627;28;20049;-59
2022/12/30 02:16:48;;;;;;;3.40;1.20;;;19.20;56.40;;;;;;5058201;28;20127;-59
2022/12/30 02:19:32;;;;;;;5.13;1.38;;;19.20;55.90;;;;;;5057400;28;20056;-60
2022/12/30 02:22:09;;;;;;;4.53;1.05;;;19.10;55.60;;;;;;5057101;28;20071;-60
2022/12/30 02:25:02;;;;;;;6.35;1.40;;;19.10;55.70;;;;;;5051755;28;20040;-59
2022/12/30 02:27:52;;;;;;;5.80;1.40;;;19.20;55.80;;;;;;5057232;28;20123;-59
2022/12/30 02:30:48;;;;;;;3.55;1.17;;;19.10;55.60;;;;;;5057512;28;20041;-59
2022/12/30 02:33:28;;;;;;;4.18;1.05;;;19.10;55.70;;;;;;5055871;28;20043;-60
2022/12/30 02:36:12;;;;;;;3.50;0.90;;;19.10;55.70;;;;;;5058136;28;20049;-59
2022/12/30 02:39:03;;;;;;;5.75;1.08;;;19.10;55.70;;;;;;5052484;28;20523;-59
2022/12/30 02:44:36;;;;;;;3.67;1.00;;;19.10;55.80;;;;;;5053625;28;20056;-60
2022/12/30 02:47:15;;;;;;;3.42;1.05;;;19.10;55.80;;;;;;5052796;28;20402;-60
2022/12/30 02:49:42;;;;;;;4.78;1.15;;;19.10;55.90;;;;;;5053197;28;20045;-60
2022/12/30 02:52:18;;;;;;;5.50;1.23;;;19.10;55.80;;;;;;5053493;28;20049;-60
2022/12/30 02:54:45;;;;;;;5.32;1.48;;;19.10;55.80;;;;;;5053983;28;20041;-60
2022/12/30 02:57:28;;;;;;;5.65;1.52;;;19.10;55.80;;;;;;5053216;28;20045;-59
2022/12/30 03:06:06;;;;;;;3.40;1.00;;;19.00;55.70;;;;;;5047016;28;19925;-59
2022/12/30 03:08:57;;;;;;;5.38;1.20;;;19.00;55.80;;;;;;5032295;28;20448;-59
2022/12/30 03:11:22;;;;;;;6.00;1.23;;;19.00;55.80;;;;;;5032360;28;20139;-59
2022/12/30 03:13:56;;;;;;;3.95;0.88;;;19.00;55.80;;;;;;5032723;28;20089;-59
2022/12/30 03:16:33;;;;;;;4.78;1.65;;;19.00;55.80;;;;;;5032173;28;20048;-59
2022/12/30 03:19:00;;;;;;;2.55;0.90;;;19.00;55.80;;;;;;5033246;28;20053;-59
2022/12/30 03:21:27;;;;;;;4.20;1.30;;;19.00;55.80;;;;;;5032759;28;20052;-59
2022/12/30 03:29:24;;;;;;;4.78;1.05;;;19.00;55.80;;;;;;5031556;28;20049;-59
2022/12/30 03:31:50;;;;;;;3.28;0.90;;;19.10;55.90;;;;;;5033065;28;20116;-59
2022/12/30 03:34:15;;;;;;;3.45;1.00;;;19.00;55.80;;;;;;5033637;28;20132;-59
2022/12/30 03:36:43;;;;;;;3.58;1.20;;;19.10;55.90;;;;;;5031926;28;20087;-59
2022/12/30 03:39:12;;;;;;;4.03;1.17;;;19.10;55.80;;;;;;5032069;28;20561;-59
2022/12/30 03:41:38;;;;;;;2.17;0.90;;;19.10;55.90;;;;;;5032466;28;20492;-60
2022/12/30 03:44:03;;;;;;;3.67;1.05;;;19.10;55.80;;;;;;5032186;28;20073;-60
2022/12/30 03:46:31;;;;;;;4.45;1.17;;;19.10;55.80;;;;;;5032320;28;20497;-60
2022/12/30 03:48:56;;;;;;;4.32;0.90;;;19.10;55.80;;;;;;5032187;28;20042;-60
2022/12/30 03:51:22;;;;;;;5.03;1.23;;;19.20;55.90;;;;;;5032470;28;20041;-59
2022/12/30 03:53:47;;;;;;;3.63;0.88;;;19.20;55.90;;;;;;5043254;28;20040;-59
2022/12/30 03:56:13;;;;;;;3.22;0.93;;;19.20;55.90;;;;;;5073105;28;20033;-59
2022/12/30 03:58:39;;;;;;;5.95;1.23;;;19.20;55.90;;;;;;5072627;28;20052;-59
2022/12/30 04:01:05;;;;;;;4.88;1.10;;;19.20;55.80;;;;;;5072080;28;20392;-59
2022/12/30 04:03:31;;;;;;;4.70;1.20;;;19.30;55.90;;;;;;5072931;28;20552;-60
2022/12/30 04:05:56;;;;;;;3.55;0.90;;;19.20;55.90;;;;;;5072313;28;20044;-59
2022/12/30 04:08:22;;;;;;;4.82;1.05;;;19.30;55.90;;;;;;5072601;28;20387;-59
2022/12/30 04:10:48;;;;;;;4.70;1.15;;;19.30;55.90;;;;;;5073064;28;20085;-59
2022/12/30 04:13:13;;;;;;;4.07;1.10;;;19.30;55.90;;;;;;5071968;28;20048;-59
2022/12/30 04:15:39;;;;;;;3.95;0.88;;;19.30;55.80;;;;;;5072577;28;20411;-59
2022/12/30 04:18:05;;;;;;;3.97;0.98;;;19.30;55.80;;;;;;5072197;28;20040;-59
2022/12/30 04:20:30;;;;;;;3.85;1.02;;;19.30;55.80;;;;;;5072528;28;20052;-59
2022/12/30 04:22:57;;;;;;;4.28;1.27;;;19.40;55.90;;;;;;5072861;28;20463;-59
2022/12/30 04:25:24;;;;;;;4.13;1.02;;;19.30;55.80;;;;;;5071949;28;20045;-59
2022/12/30 04:27:49;;;;;;;3.03;0.90;;;19.40;55.80;;;;;;5073079;28;20059;-59
2022/12/30 04:30:15;;;;;;;3.28;0.80;;;19.40;55.80;;;;;;5072349;28;20040;-59
2022/12/30 04:32:40;;;;;;;3.20;0.93;;;19.40;55.90;;;;;;5071820;28;20090;-59
2022/12/30 04:35:06;;;;;;;2.72;0.98;;;19.40;55.80;;;;;;5072755;28;20036;-59
2022/12/30 04:37:32;;;;;;;3.42;0.90;;;19.40;55.80;;;;;;5072077;28;20049;-60
2022/12/30 04:39:57;;;;;;;3.55;1.05;;;19.40;55.80;;;;;;5056292;28;20041;-59
2022/12/30 04:42:23;;;;;;;2.85;0.80;;;19.40;55.80;;;;;;5052019;28;20084;-59
2022/12/30 04:44:49;;;;;;;3.22;0.85;;;19.50;55.80;;;;;;5052014;28;20052;-59
2022/12/30 04:47:14;;;;;;;4.80;0.90;;;19.50;55.90;;;;;;5051151;28;20052;-59
2022/12/30 04:49:40;;;;;;;3.22;0.77;;;19.50;55.80;;;;;;5052224;28;20041;-59
2022/12/30 04:52:05;;;;;;;4.82;0.90;;;19.50;55.80;;;;;;5052315;28;20160;-59
2022/12/30 04:54:31;;;;;;;2.78;0.75;;;19.50;55.80;;;;;;5051420;28;20072;-59
2022/12/30 04:56:56;;;;;;;2.70;0.80;;;19.50;55.80;;;;;;5052412;28;20048;-59
2022/12/30 04:59:22;;;;;;;3.38;0.85;;;19.50;55.80;;;;;;5051482;28;20044;-59
2022/12/30 05:01:47;;;;;;;2.65;0.90;;;19.60;55.80;;;;;;5048608;28;20040;-59
2022/12/30 05:04:13;;;;;;;2.92;0.90;;;19.60;55.80;;;;;;5050782;28;20452;-59
2022/12/30 05:06:38;;;;;;;2.90;0.77;;;19.60;55.80;;;;;;5051267;28;20055;-59
2022/12/30 05:09:04;;;;;;;3.47;0.80;;;19.60;55.80;;;;;;5051296;28;20052;-60
2022/12/30 05:11:30;;;;;;;2.85;0.80;;;19.60;55.80;;;;;;5051642;28;20373;-59
2022/12/30 05:13:55;;;;;;;3.17;0.98;;;19.60;55.80;;;;;;5051953;28;20137;-60
2022/12/30 05:16:21;;;;;;;3.13;0.90;;;19.60;55.80;;;;;;5050940;28;20067;-60
2022/12/30 05:18:46;;;;;;;3.78;1.00;;;19.60;55.80;;;;;;5051735;28;20122;-59
2022/12/30 05:21:12;;;;;;;2.30;0.70;;;19.60;55.70;;;;;;5051949;28;20055;-59
2022/12/30 05:26:21;;;;;;;3.20;0.70;;;19.70;55.80;;;;;;5072024;28;20044;-59
2022/12/30 05:28:47;;;;;;;3.10;0.70;;;19.70;55.80;;;;;;5071294;28;20040;-59
2022/12/30 05:31:13;;;;;;;3.58;0.93;;;19.70;56.40;;;;;;5071529;28;20043;-59
2022/12/30 05:33:39;;;;;;;4.43;0.70;;;19.70;55.70;;;;;;5071936;28;20056;-59
2022/12/30 05:36:05;;;;;;;3.85;0.88;;;19.70;55.70;;;;;;5071070;28;20040;-59
2022/12/30 05:38:31;;;;;;;3.22;0.68;;;19.70;55.70;;;;;;5071677;28;20041;-59
2022/12/30 05:40:56;;;;;;;2.65;0.85;;;19.70;55.70;;;;;;5066718;28;20098;-59
2022/12/30 05:43:22;;;;;;;2.67;0.80;;;19.70;55.70;;;;;;5070365;28;20408;-59
2022/12/30 05:45:48;;;;;;;2.17;0.70;;;19.70;55.70;;;;;;5071776;28;20044;-59
2022/12/30 05:48:13;;;;;;;3.25;0.65;;;19.70;55.70;;;;;;5071623;28;20033;-58
2022/12/30 05:50:39;;;;;;;3.13;0.75;;;19.70;55.70;;;;;;5071265;28;20041;-59
2022/12/30 05:53:05;;;;;;;2.90;0.70;;;19.80;55.70;;;;;;5071477;28;20377;-59
2022/12/30 05:55:30;;;;;;;3.25;0.75;;;19.80;55.70;;;;;;5071382;28;20040;-58
2022/12/30 05:57:56;;;;;;;2.60;0.70;;;19.80;55.70;;;;;;5071077;28;20040;-58
2022/12/30 06:00:21;;;;;;;3.60;1.00;;;19.80;55.70;;;;;;5071683;28;20119;-58
2022/12/30 06:02:47;;;;;;;3.05;0.93;;;19.80;55.70;;;;;;5071812;28;20068;-58
2022/12/30 06:05:12;;;;;;;3.70;0.90;;;19.80;55.70;;;;;;5070208;28;20480;-58
2022/12/30 06:07:38;;;;;;;3.08;0.93;;;19.80;55.70;;;;;;5062279;28;20071;-58
2022/12/30 06:10:04;;;;;;;2.90;0.85;;;19.80;55.60;;;;;;5051550;28;20052;-58
2022/12/30 06:12:30;;;;;;;3.15;0.85;;;19.80;55.60;;;;;;5051305;28;20052;-58
2022/12/30 06:14:55;;;;;;;3.97;1.00;;;19.80;55.60;;;;;;5065072;28;20048;-58
2022/12/30 06:17:21;;;;;;;2.35;0.57;;;19.80;55.60;;;;;;5074702;28;20049;-58
2022/12/30 06:19:46;;;;;;;2.28;0.65;;;19.80;55.60;;;;;;5074336;28;20072;-58
2022/12/30 06:22:12;;;;;;;2.50;0.75;;;19.90;55.60;;;;;;5075263;28;20411;-58
2022/12/30 06:24:37;;;;;;;2.33;0.70;;;19.80;55.60;;;;;;5074740;28;20040;-58
2022/12/30 06:27:03;;;;;;;4.05;0.90;;;19.90;55.60;;;;;;5074313;28;20118;-58
2022/12/30 06:29:29;;;;;;;2.45;0.70;;;19.90;55.60;;;;;;5074864;28;20056;-58
2022/12/30 06:31:54;;;;;;;3.05;0.70;;;19.80;55.60;;;;;;5074655;28;20833;-58
2022/12/30 06:34:20;;;;;;;3.33;0.85;;;19.90;55.60;;;;;;5075003;28;20430;-57
2022/12/30 06:36:45;;;;;;;2.22;0.80;;;19.90;55.60;;;;;;5075526;28;20036;-58
2022/12/30 06:39:11;;;;;;;3.10;0.73;;;19.90;55.60;;;;;;5073798;28;20094;-58
2022/12/30 06:41:36;;;;;;;2.45;0.70;;;19.90;55.60;;;;;;5070266;28;20094;-58
2022/12/30 06:44:02;;;;;;;3.40;0.60;;;19.80;55.50;;;;;;5075520;28;20039;-59
2022/12/30 06:46:27;;;;;;;3.78;0.60;;;19.90;55.60;;;;;;5073633;28;20507;-58
2022/12/30 06:48:53;;;;;;;3.25;0.70;;;19.90;55.60;;;;;;5075422;28;20530;-59
2022/12/30 06:51:18;;;;;;;2.17;0.73;;;19.80;55.50;;;;;;5075286;28;20067;-59
2022/12/30 06:53:44;;;;;;;3.08;0.90;;;19.90;55.60;;;;;;5073956;28;20040;-59
2022/12/30 06:56:10;;;;;;;2.65;0.57;;;19.80;55.50;;;;;;5074712;28;20051;-59
2022/12/30 06:58:35;;;;;;;2.25;0.73;;;19.80;55.50;;;;;;5074858;28;20033;-59
2022/12/30 07:01:01;;;;;;;2.95;0.60;;;19.90;55.60;;;;;;5074217;28;20484;-59
2022/12/30 07:03:27;;;;;;;2.70;0.75;;;19.80;55.50;;;;;;5074520;28;20051;-59
2022/12/30 07:05:52;;;;;;;2.50;0.80;;;19.80;55.50;;;;;;5074686;28;20123;-59
2022/12/30 07:08:18;;;;;;;4.47;0.80;;;19.80;55.50;;;;;;5073485;28;20083;-59
2022/12/30 07:10:43;;;;;;;3.88;1.48;;;19.90;55.60;;;;;;5075049;28;20492;-60
2022/12/30 07:13:11;;;;;;;2.15;0.70;;;19.80;55.50;;;;;;5074268;28;20557;-59
2022/12/30 07:15:36;;;;;;;3.57;0.70;;;19.80;55.50;;;;;;5072398;28;20472;-60
2022/12/30 07:18:02;;;;;;;2.28;0.63;;;19.80;55.50;;;;;;5074778;28;20119;-58
2022/12/30 07:20:27;;;;;;;3.58;0.85;;;19.80;55.40;;;;;;5074530;28;20473;-58
2022/12/30 07:22:53;;;;;;;2.83;0.82;;;19.90;55.50;;;;;;5073145;28;20037;-57
2022/12/30 07:25:18;;;;;;;2.83;0.75;;;19.90;55.50;;;;;;5074017;28;20048;-57
2022/12/30 07:27:44;;;;;;;3.17;0.65;;;19.90;55.50;;;;;;5074575;28;20047;-57
2022/12/30 07:30:11;;;;;;;2.15;0.60;;;19.90;55.40;;;;;;5073097;28;20051;-57
2022/12/30 07:32:36;;;;;;;4.38;0.90;;;19.90;55.40;;;;;;5074581;28;20059;-57
2022/12/30 07:35:02;;;;;;;4.13;0.70;;;19.90;55.50;;;;;;5073786;28;20045;-58
2022/12/30 07:37:28;;;;;;;1.73;0.60;;;19.90;55.40;;;;;;5073519;28;20484;-58
2022/12/30 07:39:53;;;;;;;6.10;0.75;;;19.90;55.40;;;;;;5074177;28;20047;-57
2022/12/30 07:42:19;;;;;;;2.92;1.00;;;19.90;55.40;;;;;;5072812;28;20194;-58
2022/12/30 07:44:45;;;;;;;4.55;0.90;;;20.00;55.40;;;;;;5073948;28;20090;-58
2022/12/30 07:47:10;;;;;;;3.85;0.70;;;20.00;55.40;;;;;;5073878;28;20048;-58
2022/12/30 07:49:36;;;;;;;2.53;0.73;;;20.10;55.40;;;;;;5067634;28;20040;-58
2022/12/30 07:52:01;;;;;;;4.18;0.60;;;20.10;55.40;;;;;;5073863;28;20036;-56
2022/12/30 07:54:27;;;;;;;3.10;0.88;;;20.10;55.40;;;;;;5073779;28;20101;-57
2022/12/30 07:56:52;;;;;;;4.43;1.00;;;20.10;55.40;;;;;;5073230;28;20135;-57
2022/12/30 07:59:18;;;;;;;4.57;0.93;;;20.10;55.40;;;;;;5058601;28;20069;-56
2022/12/30 08:01:43;;;;;;;3.72;0.80;;;20.10;55.50;;;;;;5053272;28;20037;-56
2022/12/30 08:04:09;;;;;;;5.05;0.90;;;20.20;55.70;;;;;;5049693;28;20443;-58
2022/12/30 08:06:34;;;;;;;3.85;0.77;;;20.20;55.80;;;;;;5051934;28;20041;-57
2022/12/30 08:09:04;;;;;;;4.07;0.73;;;20.20;56.20;;;;;;5053430;28;20041;-58
2022/12/30 08:11:30;;;;;;;5.95;0.90;;;20.20;55.90;;;;;;5051264;28;20087;-57
2022/12/30 08:13:55;;;;;;;2.88;0.93;;;20.30;56.00;;;;;;5053239;28;20084;-57
2022/12/30 08:16:21;;;;;;;4.07;0.68;;;20.30;56.00;;;;;;5052999;28;20056;-58
2022/12/30 08:18:46;;;;;;;6.82;0.77;;;20.30;56.10;;;;;;5052671;28;20532;-57
2022/12/30 08:21:15;;;;;;;3.92;0.70;;;20.30;56.10;;;;;;5053401;28;20413;-58
2022/12/30 08:23:47;;;;;;;7.40;1.08;;;20.30;56.00;;;;;;5053239;28;20621;-58
2022/12/30 08:26:20;;;;;;;3.15;1.02;;;20.40;56.20;;;;;;5052309;28;20041;-58
2022/12/30 08:28:45;;;;;;;3.75;0.80;;;20.40;56.10;;;;;;5052980;28;20041;-58
2022/12/30 08:31:13;;;;;;;3.65;0.77;;;20.40;56.10;;;;;;5052383;28;20045;-58
2022/12/30 08:33:38;;;;;;;4.47;0.77;;;20.40;55.90;;;;;;5053328;28;20120;-59
2022/12/30 08:36:06;;;;;;;4.35;0.77;;;20.40;55.90;;;;;;5052496;28;20823;-59
2022/12/30 08:38:33;;;;;;;5.07;0.90;;;20.40;55.90;;;;;;5051984;28;20047;-58
2022/12/30 08:41:06;;;;;;;6.40;0.70;;;20.50;56.00;;;;;;5053250;28;20044;-58
2022/12/30 08:43:32;;;;;;;4.00;0.77;;;20.50;56.00;;;;;;5052033;28;20119;-59
2022/12/30 08:45:58;;;;;;;4.65;0.98;;;20.50;55.90;;;;;;5046742;28;20509;-58
2022/12/30 08:48:24;;;;;;;4.22;0.60;;;20.50;56.00;;;;;;5051330;28;20044;-58
2022/12/30 08:50:49;;;;;;;4.57;0.73;;;20.50;55.90;;;;;;5052959;28;20361;-57
2022/12/30 08:53:15;;;;;;;3.90;0.80;;;20.50;55.90;;;;;;5052247;28;20037;-57
2022/12/30 08:55:40;;;;;;;4.10;0.80;;;20.50;56.00;;;;;;5046866;28;20053;-58
2022/12/30 08:58:06;;;;;;;3.45;0.80;;;20.50;55.90;;;;;;5051620;28;20053;-57
2022/12/30 09:00:31;;;;;;;3.00;0.80;;;20.50;55.90;;;;;;5050884;28;20041;-58
2022/12/30 09:02:57;;;;;;;4.38;0.90;;;20.50;55.80;;;;;;5052119;28;20531;-58
2022/12/30 09:05:22;;;;;;;4.55;0.90;;;20.50;55.70;;;;;;5050488;28;20543;-58
2022/12/30 09:07:48;;;;;;;6.97;0.70;;;20.50;55.80;;;;;;5050309;28;20453;-58
2022/12/30 09:10:13;;;;;;;4.07;0.80;;;20.40;55.90;;;;;;5044112;28;20037;-58
2022/12/30 09:12:39;;;;;;;3.35;0.70;;;20.40;56.00;;;;;;5053138;28;20045;-58
2022/12/30 09:15:06;;;;;;;4.60;0.80;;;20.40;56.10;;;;;;5050175;28;20119;-59
2022/12/30 09:17:31;;;;;;;7.65;1.10;;;20.40;56.20;;;;;;5056741;28;20119;-59
2022/12/30 09:19:57;;;;;;;4.65;0.90;;;20.40;56.30;;;;;;5055445;28;20120;-59
2022/12/30 09:22:22;;;;;;;5.32;0.82;;;20.40;56.40;;;;;;5050528;28;20127;-59
2022/12/30 09:24:48;;;;;;;5.55;0.98;;;20.40;56.50;;;;;;5051766;28;20082;-58
2022/12/30 09:27:13;;;;;;;2.75;0.70;;;20.40;56.50;;;;;;5052189;28;20041;-59
2022/12/30 09:29:39;;;;;;;4.68;0.88;;;20.30;56.50;;;;;;5051554;28;20526;-58
2022/12/30 09:32:04;;;;;;;3.35;0.80;;;20.30;56.50;;;;;;5050803;28;20068;-58
2022/12/30 09:34:30;;;;;;;3.45;0.52;;;20.30;56.50;;;;;;5051170;28;20041;-58
2022/12/30 09:36:56;;;;;;;3.53;0.68;;;20.30;56.60;;;;;;5046673;28;20046;-58
2022/12/30 09:39:30;;;;;;;3.25;0.80;;;20.30;56.60;;;;;;5038017;28;20048;-58
2022/12/30 09:44:59;;;;;;;3.45;0.88;;;20.30;56.60;;;;;;5037167;28;20045;-58
2022/12/30 09:47:30;;;;;;;3.60;0.70;;;20.30;56.60;;;;;;5039504;28;20045;-58
2022/12/30 09:50:07;;;;;;;3.35;0.80;;;20.30;56.60;;;;;;5043295;28;20114;-57
2022/12/30 09:52:50;;;;;;;3.88;0.68;;;20.30;56.70;;;;;;5035318;28;20104;-57
2022/12/30 09:55:26;;;;;;;2.70;0.70;;;20.30;56.60;;;;;;5054840;28;20041;-57
2022/12/30 09:57:58;;;;;;;4.40;1.45;;;20.30;56.60;;;;;;5050011;28;20041;-58
2022/12/30 10:00:24;;;;;;;4.35;0.90;;;20.30;56.60;;;;;;5054197;28;20048;-58
2022/12/30 10:03:10;;;;;;;2.97;0.90;;;20.30;56.60;;;;;;5053985;28;20193;-58
2022/12/30 10:05:42;;;;;;;4.32;0.93;;;20.30;56.60;;;;;;5054937;28;20048;-58
2022/12/30 10:09:02;;;;;;;3.20;0.80;;;20.30;56.60;;;;;;5053616;28;20045;-58
2022/12/30 10:11:33;;;;;;;2.75;0.70;;;20.30;56.60;;;;;;5032735;28;20056;-58
2022/12/30 10:14:53;;;;;;;2.50;0.88;;;20.30;56.60;;;;;;5052171;28;20100;-58
2022/12/30 10:17:38;;;;;;;5.47;0.75;;;20.30;56.60;;;;;;5032470;28;20096;-58
2022/12/30 10:20:21;;;;;;;3.28;0.80;;;20.30;56.70;;;;;;5053828;28;20053;-57
2022/12/30 10:23:01;;;;;;;3.13;0.60;;;20.30;56.70;;;;;;5053334;28;20068;-59
2022/12/30 10:25:44;;;;;;;4.43;0.80;;;20.30;56.80;;;;;;5052640;28;20424;-60
2022/12/30 10:28:12;;;;;;;5.35;1.00;;;20.30;56.90;;;;;;5046955;28;20040;-57
2022/12/30 10:30:46;;;;;;;3.50;0.70;;;20.30;56.90;;;;;;5052197;28;20047;-58
2022/12/30 10:33:17;;;;;;;6.25;1.10;;;20.30;56.90;;;;;;5053325;28;20045;-58
2022/12/30 10:35:42;;;;;;;7.25;0.90;;;20.30;56.80;;;;;;5057980;28;20174;-58
2022/12/30 10:38:13;;;;;;;7.40;1.40;;;20.30;56.90;;;;;;5052000;28;20045;-59
2022/12/30 10:40:48;;;;;;;6.63;0.70;;;20.30;56.70;;;;;;5055076;28;20045;-58
2022/12/30 10:43:33;;;;;;;4.25;1.00;;;20.30;56.60;;;;;;5053871;28;20404;-59
2022/12/30 10:46:24;;;;;;;4.57;0.75;;;20.30;56.60;;;;;;5053938;28;20041;-59
2022/12/30 10:49:10;;;;;;;4.05;0.60;;;20.30;56.60;;;;;;5052649;28;20043;-60
2022/12/30 10:51:35;;;;;;;5.50;0.60;;;20.30;56.60;;;;;;5053014;28;20041;-57
2022/12/30 10:54:01;;;;;;;5.18;0.70;;;20.30;56.90;;;;;;5051969;28;20122;-58
2022/12/30 10:56:29;;;;;;;4.75;0.88;;;20.30;57.00;;;;;;5053734;28;20111;-57
2022/12/30 10:58:57;;;;;;;3.10;0.82;;;20.20;57.10;;;;;;5052024;28;20412;-57
2022/12/30 11:01:35;;;;;;;4.35;0.80;;;20.30;57.20;;;;;;5036100;28;20451;-57
2022/12/30 11:04:01;;;;;;;5.85;0.90;;;20.20;57.00;;;;;;5033051;28;20047;-57
2022/12/30 11:06:28;;;;;;;3.40;0.63;;;20.20;57.10;;;;;;5032253;28;20045;-57
2022/12/30 11:09:15;;;;;;;5.20;1.00;;;20.30;57.10;;;;;;5033338;28;20140;-59
2022/12/30 11:14:42;;;;;;;3.15;0.80;;;20.20;57.00;;;;;;5033887;28;20053;-60
2022/12/30 11:17:28;;;;;;;4.13;0.70;;;20.30;57.10;;;;;;5034765;28;20470;-60
2022/12/30 11:20:19;;;;;;;7.43;1.23;;;20.20;57.00;;;;;;5034680;28;20041;-60
2022/12/30 11:22:45;;;;;;;4.00;0.88;;;20.20;57.10;;;;;;5033607;28;20049;-60
2022/12/30 11:25:29;;;;;;;6.45;1.00;;;20.20;57.10;;;;;;5034293;28;20041;-60
2022/12/30 11:27:59;;;;;;;5.38;0.70;;;20.20;57.00;;;;;;5038135;28;20037;-61
2022/12/30 11:30:32;;;;;;;3.17;0.90;;;20.10;56.90;;;;;;5053584;28;20461;-60
2022/12/30 11:33:05;;;;;;;7.32;1.20;;;20.10;56.90;;;;;;5053738;28;20045;-57
2022/12/30 11:35:39;;;;;;;4.45;0.70;;;20.10;56.70;;;;;;5053435;28;20041;-57
2022/12/30 11:38:26;;;;;;;5.50;1.13;;;20.10;56.80;;;;;;5052325;28;20055;-57
2022/12/30 11:40:52;;;;;;;6.78;1.30;;;20.10;56.60;;;;;;5053340;28;20431;-59
2022/12/30 11:43:18;;;;;;;7.45;0.85;;;20.10;56.70;;;;;;5052436;28;20044;-59
2022/12/30 11:46:03;;;;;;;4.25;1.10;;;20.10;56.70;;;;;;5053548;28;20503;-58
2022/12/30 11:48:33;;;;;;;8.05;1.00;;;20.10;56.60;;;;;;5051742;28;20106;-59
2022/12/30 11:51:01;;;;;;;5.40;1.08;;;20.10;56.60;;;;;;5050416;28;20047;-58
2022/12/30 11:53:29;;;;;;;5.43;1.17;;;20.10;56.70;;;;;;5053336;28;20044;-59
2022/12/30 11:55:54;;;;;;;6.03;0.70;;;20.00;56.60;;;;;;5052710;28;20064;-58
2022/12/30 11:58:20;;;;;;;4.22;0.65;;;20.00;56.50;;;;;;5052011;28;20481;-58
2022/12/30 12:00:47;;;;;;;7.10;1.25;;;20.00;56.60;;;;;;5052637;28;20033;-57
2022/12/30 12:03:15;;;;;;;6.60;0.82;;;20.00;56.60;;;;;;5051345;28;20056;-57
2022/12/30 12:05:42;;;;;;;7.75;0.88;;;20.00;56.70;;;;;;5053771;28;20045;-58
2022/12/30 12:08:27;;;;;;;11.63;1.45;;;20.00;56.70;;;;;;5053570;28;20056;-63
2022/12/30 12:11:11;;;;;;;6.47;0.90;;;20.00;56.70;;;;;;5051413;28;20048;-56
2022/12/30 12:14:05;;;;;;;8.13;1.15;;;20.00;56.70;;;;;;5051713;28;20099;-58
2022/12/30 12:16:42;;;;;;;5.68;1.08;;;20.00;56.70;;;;;;5051898;28;20401;-58
2022/12/30 12:19:22;;;;;;;4.97;0.85;;;20.00;56.70;;;;;;5051985;28;20060;-58
2022/12/30 12:21:49;;;;;;;5.88;0.70;;;20.00;56.70;;;;;;5051996;28;20048;-58
2022/12/30 12:24:35;;;;;;;4.10;1.05;;;20.00;56.60;;;;;;5050750;28;20056;-58
2022/12/30 12:27:12;;;;;;;8.50;1.00;;;20.00;56.60;;;;;;5052043;28;20045;-58
2022/12/30 12:29:38;;;;;;;5.50;0.70;;;20.00;56.60;;;;;;5051986;28;20075;-57
2022/12/30 12:32:25;;;;;;;5.53;0.90;;;20.00;56.70;;;;;;5051058;28;20072;-58
2022/12/30 12:35:24;;;;;;;7.27;0.80;;;19.90;56.60;;;;;;5053069;28;20084;-58
2022/12/30 12:38:13;;;;;;;4.25;0.63;;;19.90;56.70;;;;;;5052157;28;20048;-58
2022/12/30 12:41:03;;;;;;;2.47;0.70;;;19.90;56.70;;;;;;5049205;28;20088;-57
2022/12/30 12:43:53;;;;;;;2.17;0.80;;;19.90;56.90;;;;;;5051501;28;20052;-58
2022/12/30 12:46:31;;;;;;;4.28;0.73;;;19.90;57.20;;;;;;5031259;28;20390;-58
2022/12/30 12:49:04;;;;;;;7.95;0.80;;;19.90;57.30;;;;;;5052715;28;20041;-59
2022/12/30 12:51:47;;;;;;;3.22;0.50;;;19.90;57.30;;;;;;5050850;28;20159;-58
2022/12/30 12:54:18;;;;;;;3.75;0.77;;;20.00;57.70;;;;;;5052412;28;20056;-58
2022/12/30 12:56:53;;;;;;;5.10;0.90;;;20.00;57.90;;;;;;5052663;28;20041;-58
2022/12/30 12:59:35;;;;;;;2.65;0.68;;;20.00;57.80;;;;;;5050320;28;20488;-58
2022/12/30 13:02:09;;;;;;;4.28;0.63;;;20.00;57.90;;;;;;5051357;28;20045;-58
2022/12/30 13:05:08;;;;;;;4.15;1.08;;;20.00;57.80;;;;;;5052019;28;20044;-57
2022/12/30 13:07:40;;;;;;;8.38;0.80;;;20.00;57.90;;;;;;5044385;28;20099;-58
2022/12/30 13:10:14;;;;;;;2.97;0.80;;;20.00;58.00;;;;;;5051883;28;20501;-58
2022/12/30 13:12:47;;;;;;;3.53;0.63;;;20.00;58.00;;;;;;5051738;28;20052;-59
2022/12/30 13:15:26;;;;;;;2.42;0.60;;;20.00;58.00;;;;;;5050854;28;20053;-58
2022/12/30 13:17:53;;;;;;;3.10;0.60;;;20.00;58.10;;;;;;5051280;28;20508;-57
2022/12/30 13:20:36;;;;;;;6.78;0.80;;;20.10;58.00;;;;;;5050268;28;20048;-58
2022/12/30 13:23:03;;;;;;;1.85;0.50;;;20.10;58.00;;;;;;5034662;28;20503;-58
2022/12/30 13:25:31;;;;;;;3.45;0.50;;;20.10;58.00;;;;;;5050728;28;20063;-57
2022/12/30 13:27:57;;;;;;;5.70;0.90;;;20.10;57.90;;;;;;5032322;28;20037;-57
2022/12/30 13:30:24;;;;;;;5.18;0.60;;;20.10;57.90;;;;;;5050585;28;20764;-57
2022/12/30 13:33:10;;;;;;;5.18;0.80;;;20.10;57.90;;;;;;5047442;28;20052;-58
2022/12/30 13:36:33;;;;;;;6.43;0.82;;;20.10;57.90;;;;;;5050393;28;20049;-57
2022/12/30 13:39:04;;;;;;;3.97;0.65;;;20.10;57.90;;;;;;5010147;28;20536;-57
2022/12/30 13:41:59;;;;;;;4.82;0.60;;;20.10;57.90;;;;;;4993029;28;20038;-56
2022/12/30 13:44:25;;;;;;;3.53;0.47;;;20.10;57.90;;;;;;5038987;28;20049;-59
2022/12/30 13:46:52;;;;;;;6.95;0.73;;;20.10;57.90;;;;;;5050998;28;20068;-57
2022/12/30 13:49:33;;;;;;;4.55;0.60;;;20.10;58.00;;;;;;5049773;28;20542;-58
2022/12/30 13:52:00;;;;;;;4.50;0.60;;;20.20;58.10;;;;;;5052194;28;20378;-58
2022/12/30 13:54:26;;;;;;;4.35;0.90;;;20.20;58.00;;;;;;5050298;28;20049;-58
2022/12/30 13:56:51;;;;;;;6.22;0.80;;;20.20;58.00;;;;;;5051113;28;20082;-58
2022/12/30 13:59:37;;;;;;;2.67;0.60;;;20.20;58.00;;;;;;5050723;28;20516;-57